createdAt,value
2022-11-07T00:01:50.044Z,83.91
2022-11-07T00:04:17.659Z,84.93
2022-11-07T00:06:46.660Z,85.22
2022-11-07T00:09:14.112Z,85.34
2022-11-07T00:11:41.159Z,84.87
2022-11-07T00:14:08.171Z,84.77
2022-11-07T00:16:36.880Z,85.02
2022-11-07T00:19:04.468Z,84.84
2022-11-07T00:21:31.767Z,84.78
2022-11-07T00:24:00.554Z,83.74
2022-11-07T00:26:29.860Z,84.05
2022-11-07T00:28:56.899Z,83.48
2022-11-07T00:31:23.991Z,84.90
2022-11-07T00:33:51.299Z,85.53
2022-11-07T00:36:21.905Z,85.28
2022-11-07T00:38:50.209Z,85.25
2022-11-07T00:41:20.735Z,84.91
2022-11-07T00:43:48.777Z,85.23
2022-11-07T00:46:17.629Z,85.35
2022-11-07T00:48:47.391Z,86.05
2022-11-07T00:51:17.642Z,85.57
2022-11-07T00:53:45.733Z,85.36
2022-11-07T00:56:18.889Z,85.75
2022-11-07T00:58:48.329Z,85.60
2022-11-07T01:01:19.978Z,85.32
2022-11-07T01:03:48.860Z,85.57
2022-11-07T01:06:22.802Z,85.11
2022-11-07T01:08:54.326Z,85.13
2022-11-07T01:11:22.538Z,85.02
2022-11-07T01:13:55.589Z,85.14
2022-11-07T01:16:23.377Z,85.22
2022-11-07T01:18:50.737Z,84.21
2022-11-07T01:21:20.750Z,84.88
2022-11-07T01:23:47.753Z,84.38
2022-11-07T01:26:16.557Z,84.03
2022-11-07T01:28:43.743Z,84.21
2022-11-07T01:31:16.820Z,84.37
2022-11-07T01:33:46.873Z,83.72
2022-11-07T01:36:17.430Z,83.67
2022-11-07T01:38:47.107Z,83.52
2022-11-07T01:41:18.738Z,84.12
2022-11-07T01:43:49.295Z,83.59
2022-11-07T01:46:19.123Z,83.54
2022-11-07T01:48:59.048Z,83.71
2022-11-07T01:51:29.686Z,83.67
2022-11-07T01:53:57.010Z,83.55
2022-11-07T01:56:30.631Z,83.38
2022-11-07T01:59:00.125Z,83.39
2022-11-07T02:01:28.952Z,83.73
2022-11-07T02:03:58.970Z,83.73
2022-11-07T02:06:36.755Z,82.99
2022-11-07T02:09:04.281Z,82.93
2022-11-07T02:11:31.652Z,83.24
2022-11-07T02:13:58.744Z,82.52
2022-11-07T02:16:25.946Z,83.02
2022-11-07T02:18:55.669Z,82.81
2022-11-07T02:21:38.403Z,83.58
2022-11-07T02:24:30.344Z,83.94
2022-11-07T02:27:11.837Z,83.80
2022-11-07T02:29:47.939Z,83.55
2022-11-07T02:32:20.599Z,83.05
2022-11-07T02:35:00.399Z,84.20
2022-11-07T02:37:40.026Z,84.55
2022-11-07T02:40:10.832Z,84.90
2022-11-07T02:42:40.027Z,84.93
2022-11-07T02:45:08.294Z,85.30
2022-11-07T02:47:35.151Z,85.61
2022-11-07T02:50:02.059Z,85.00
2022-11-07T02:52:28.926Z,85.32
2022-11-07T02:54:55.837Z,84.71
2022-11-07T02:57:24.185Z,85.17
2022-11-07T02:59:51.087Z,84.80
2022-11-07T03:02:18.330Z,85.67
2022-11-07T03:04:49.093Z,85.28
2022-11-07T03:07:16.817Z,85.12
2022-11-07T03:09:43.989Z,85.19
2022-11-07T03:12:11.050Z,84.84
2022-11-07T03:14:39.507Z,85.24
2022-11-07T03:17:06.336Z,84.52
2022-11-07T03:19:33.228Z,85.15
2022-11-07T03:22:00.465Z,84.99
2022-11-07T03:24:27.995Z,84.36
2022-11-07T03:26:55.321Z,83.88
2022-11-07T03:29:25.537Z,84.09
2022-11-07T03:31:53.816Z,84.28
2022-11-07T03:34:21.145Z,83.70
2022-11-07T03:36:48.045Z,84.07
2022-11-07T03:39:14.886Z,84.53
2022-11-07T03:41:41.727Z,84.48
2022-11-07T03:44:08.629Z,84.40
2022-11-07T03:46:35.760Z,84.38
2022-11-07T03:49:04.003Z,84.30
2022-11-07T03:51:31.257Z,84.49
2022-11-07T03:53:58.136Z,84.97
2022-11-07T03:56:25.291Z,84.49
2022-11-07T03:58:52.314Z,84.75
2022-11-07T04:01:19.733Z,84.73
2022-11-07T04:03:46.995Z,85.20
2022-11-07T04:06:15.607Z,85.22
2022-11-07T04:08:42.834Z,84.76
2022-11-07T04:11:10.314Z,84.56
2022-11-07T04:13:38.193Z,84.42
2022-11-07T04:16:05.593Z,85.21
2022-11-07T04:18:33.174Z,84.87
2022-11-07T04:21:00.046Z,85.16
2022-11-07T04:23:28.194Z,85.18
2022-11-07T04:25:55.607Z,84.38
2022-11-07T04:28:22.769Z,84.86
2022-11-07T04:30:49.941Z,84.67
2022-11-07T04:33:17.539Z,83.54
2022-11-07T04:35:44.853Z,84.46
2022-11-07T04:38:11.801Z,84.31
2022-11-07T04:40:40.306Z,84.34
2022-11-07T04:43:07.494Z,84.14
2022-11-07T04:45:34.694Z,84.21
2022-11-07T04:48:01.750Z,84.18
2022-11-07T04:50:29.125Z,84.84
2022-11-07T04:52:56.295Z,84.28
2022-11-07T04:55:26.168Z,84.34
2022-11-07T04:57:54.630Z,83.94
2022-11-07T05:00:21.699Z,84.12
2022-11-07T05:02:50.355Z,83.97
2022-11-07T05:05:25.787Z,84.31
2022-11-07T05:07:52.971Z,84.69
2022-11-07T05:10:22.748Z,84.91
2022-11-07T05:14:39.344Z,84.53
2022-11-07T05:17:06.634Z,84.93
2022-11-07T05:19:33.517Z,85.50
2022-11-07T05:22:00.683Z,86.13
2022-11-07T05:24:27.492Z,85.67
2022-11-07T05:26:54.418Z,85.69
2022-11-07T05:29:22.515Z,86.24
2022-11-07T05:31:49.310Z,86.28
2022-11-07T05:34:16.270Z,85.50
2022-11-07T05:36:43.431Z,85.42
2022-11-07T05:39:10.210Z,85.59
2022-11-07T05:41:37.015Z,85.38
2022-11-07T05:44:04.528Z,83.92
2022-11-07T05:46:32.775Z,85.02
2022-11-07T05:49:01.067Z,84.59
2022-11-07T05:51:28.101Z,84.22
2022-11-07T05:53:58.501Z,84.91
2022-11-07T05:56:25.290Z,84.68
2022-11-07T05:58:52.045Z,84.93
2022-11-07T06:01:19.021Z,84.93
2022-11-07T06:03:47.168Z,84.50
2022-11-07T06:06:13.875Z,84.99
2022-11-07T06:08:40.880Z,85.48
2022-11-07T06:11:07.784Z,84.51
2022-11-07T06:13:34.555Z,84.94
2022-11-07T06:16:01.459Z,85.21
2022-11-07T06:18:28.302Z,84.51
2022-11-07T06:20:56.434Z,85.15
2022-11-07T06:23:26.409Z,85.18
2022-11-07T06:25:53.337Z,85.19
2022-11-07T06:37:20.489Z,85.10
2022-11-07T06:39:47.780Z,84.68
2022-11-07T06:42:14.542Z,84.46
2022-11-07T06:44:41.513Z,84.16
2022-11-07T06:47:08.229Z,84.33
2022-11-07T06:49:35.015Z,83.51
2022-11-07T06:56:25.587Z,83.72
2022-11-07T06:58:52.507Z,83.30
2022-11-07T07:01:19.299Z,82.66
2022-11-07T07:03:46.440Z,82.89
2022-11-07T07:06:16.125Z,82.44
2022-11-07T07:08:44.294Z,82.09
2022-11-07T07:15:55.144Z,80.78
2022-11-07T07:18:23.619Z,78.53
2022-11-07T07:21:16.365Z,79.22
2022-11-07T07:23:43.254Z,80.04
2022-11-07T07:26:14.171Z,81.18
2022-11-07T07:32:52.538Z,81.58
2022-11-07T07:35:19.459Z,81.38
2022-11-07T07:37:49.896Z,81.89
2022-11-07T07:40:16.823Z,81.77
2022-11-07T07:42:44.787Z,82.35
2022-11-07T07:45:14.675Z,80.81
2022-11-07T07:47:42.638Z,80.86
2022-11-07T08:04:06.004Z,78.51
2022-11-07T08:06:33.328Z,77.27
2022-11-07T08:09:03.267Z,75.51
2022-11-07T08:11:30.834Z,74.71
2022-11-07T08:14:01.209Z,74.04
2022-11-07T08:16:30.520Z,73.74
2022-11-07T08:19:15.172Z,73.35
2022-11-07T08:21:44.115Z,73.02
2022-11-07T08:24:10.872Z,73.02
2022-11-07T08:26:38.080Z,73.46
2022-11-07T08:29:05.476Z,73.76
2022-11-07T08:31:32.562Z,73.71
2022-11-07T08:34:00.105Z,75.02
2022-11-07T08:36:28.796Z,75.68
2022-11-07T08:38:56.077Z,76.48
2022-11-07T08:41:22.873Z,75.86
2022-11-07T08:43:50.016Z,74.82
2022-11-07T08:46:16.744Z,75.57
2022-11-07T08:48:43.916Z,75.27
2022-11-07T08:51:10.663Z,76.57
2022-11-07T08:53:38.958Z,76.33
2022-11-07T08:56:09.043Z,75.38
2022-11-07T08:58:37.256Z,75.75
2022-11-07T09:01:06.399Z,75.58
2022-11-07T09:03:46.253Z,75.21
2022-11-07T09:06:14.629Z,75.78
2022-11-07T09:08:43.381Z,74.23
2022-11-07T09:11:10.926Z,73.69
2022-11-07T09:13:37.815Z,72.90
2022-11-07T09:16:08.382Z,73.12
2022-11-07T09:18:35.358Z,72.82
2022-11-07T09:21:02.121Z,70.85
2022-11-07T09:23:29.624Z,72.55
2022-11-07T09:26:00.126Z,72.59
2022-11-07T09:28:27.581Z,73.05
2022-11-07T09:30:56.054Z,73.45
2022-11-07T09:33:23.884Z,73.85
2022-11-07T09:35:51.656Z,74.61
2022-11-07T09:38:18.503Z,74.40
2022-11-07T09:40:55.935Z,74.47
2022-11-07T09:43:47.404Z,74.38
2022-11-07T09:46:33.130Z,73.58
2022-11-07T09:49:13.637Z,74.47
2022-11-07T09:51:47.515Z,74.33
2022-11-07T09:54:21.400Z,74.04
2022-11-07T09:56:48.282Z,74.38
2022-11-07T09:59:24.745Z,74.35
2022-11-07T10:01:52.073Z,73.91
2022-11-07T10:04:26.629Z,73.98
2022-11-07T10:07:04.078Z,72.97
2022-11-07T10:09:44.145Z,73.33
2022-11-07T10:12:34.148Z,73.03
2022-11-07T10:15:17.907Z,71.68
2022-11-07T10:17:59.346Z,72.34
2022-11-07T10:20:49.206Z,71.76
2022-11-07T10:23:40.371Z,70.82
2022-11-07T10:26:10.856Z,71.34
2022-11-07T10:28:46.345Z,71.21
2022-11-07T10:31:16.029Z,71.57
2022-11-07T10:33:53.123Z,70.91
2022-11-07T10:36:27.893Z,70.80
2022-11-07T10:38:55.019Z,70.86
2022-11-07T10:45:15.698Z,70.52
2022-11-07T10:47:56.588Z,70.53
2022-11-07T10:50:24.796Z,69.85
2022-11-07T10:52:55.103Z,69.27
2022-11-07T10:55:23.864Z,69.05
2022-11-07T10:57:57.612Z,69.09
2022-11-07T11:00:27.234Z,69.09
2022-11-07T11:03:29.025Z,69.63
2022-11-07T11:06:21.427Z,68.91
2022-11-07T11:08:52.496Z,69.40
2022-11-07T11:11:30.717Z,68.26
2022-11-07T11:14:09.688Z,67.81
2022-11-07T11:16:40.063Z,68.46
2022-11-07T11:19:22.214Z,68.06
2022-11-07T11:21:53.306Z,67.15
2022-11-07T11:24:31.908Z,66.79
2022-11-07T11:27:04.769Z,67.53
2022-11-07T11:29:42.491Z,66.21
2022-11-07T11:32:21.257Z,66.35
2022-11-07T11:35:07.918Z,67.32
2022-11-07T11:37:42.519Z,66.54
2022-11-07T11:40:18.251Z,66.45
2022-11-07T11:42:59.785Z,66.80
2022-11-07T11:45:41.243Z,66.05
2022-11-07T11:48:28.678Z,66.33
2022-11-07T11:51:03.689Z,65.46
2022-11-07T11:53:31.127Z,65.00
2022-11-07T11:56:24.159Z,65.38
2022-11-07T11:59:14.638Z,64.77
2022-11-07T12:01:56.962Z,63.68
2022-11-07T12:04:44.058Z,63.33
2022-11-07T12:07:38.697Z,62.92
2022-11-07T12:10:16.916Z,62.07
2022-11-07T12:13:01.586Z,61.77
2022-11-07T12:15:44.544Z,62.13
2022-11-07T12:18:24.376Z,62.32
2022-11-07T12:21:08.654Z,61.21
2022-11-07T12:24:02.092Z,61.15
2022-11-07T12:26:37.954Z,60.93
2022-11-07T12:29:27.448Z,60.31
2022-11-07T12:32:13.308Z,59.29
2022-11-07T12:35:16.514Z,58.22
2022-11-07T12:38:57.786Z,58.33
2022-11-07T12:41:58.943Z,57.11
2022-11-07T12:45:00.963Z,55.49
2022-11-07T12:47:54.165Z,54.89
2022-11-07T12:50:39.685Z,55.74
2022-11-07T12:53:40.870Z,55.70
2022-11-07T12:56:15.001Z,56.11
2022-11-07T12:58:47.140Z,56.27
2022-11-07T13:01:20.138Z,56.38
2022-11-07T13:04:10.846Z,55.59
2022-11-07T13:06:48.685Z,55.18
2022-11-07T13:09:31.237Z,55.42
2022-11-07T13:12:11.169Z,54.32
2022-11-07T13:14:43.233Z,54.52
2022-11-07T13:17:17.438Z,55.34
2022-11-07T13:19:57.488Z,55.64
2022-11-07T13:22:33.931Z,56.69
2022-11-07T13:25:24.166Z,56.75
2022-11-07T13:28:23.534Z,57.62
2022-11-07T13:31:02.300Z,56.50
2022-11-07T13:33:36.632Z,56.52
2022-11-07T13:36:25.260Z,56.98
2022-11-07T13:39:01.162Z,57.09
2022-11-07T13:41:43.748Z,57.08
2022-11-07T13:44:27.637Z,56.45
2022-11-07T13:47:01.175Z,56.53
2022-11-07T13:49:43.041Z,56.52
2022-11-07T13:52:19.714Z,56.84
2022-11-07T13:54:58.809Z,56.74
2022-11-07T13:57:34.757Z,57.00
2022-11-07T14:00:10.732Z,56.68
2022-11-07T14:02:52.784Z,57.08
2022-11-07T14:05:25.304Z,56.95
2022-11-07T14:08:02.547Z,56.31
2022-11-07T14:10:46.949Z,56.61
2022-11-07T14:13:23.018Z,56.78
2022-11-07T14:15:55.304Z,56.85
2022-11-07T14:18:28.422Z,57.03
2022-11-07T14:20:58.704Z,58.45
2022-11-07T14:23:28.543Z,58.18
2022-11-07T14:25:59.903Z,59.04
2022-11-07T14:28:35.251Z,59.52
2022-11-07T14:31:05.644Z,58.94
2022-11-07T14:33:48.010Z,59.14
2022-11-07T14:36:18.011Z,58.98
2022-11-07T14:40:56.556Z,58.65
2022-11-07T14:41:42.914Z,60.12
2022-11-07T14:44:20.589Z,59.66
2022-11-07T14:46:50.016Z,59.96
2022-11-07T14:49:26.765Z,60.11
2022-11-07T14:51:56.039Z,60.23
2022-11-07T14:54:31.578Z,60.54
2022-11-07T14:57:00.830Z,60.49
2022-11-07T14:59:28.210Z,60.82
2022-11-07T15:02:05.049Z,60.86
2022-11-07T15:04:41.902Z,61.15
2022-11-07T15:07:11.658Z,61.02
2022-11-07T15:09:39.079Z,60.75
2022-11-07T15:12:15.898Z,61.32
2022-11-07T15:14:59.246Z,61.43
2022-11-07T15:17:27.271Z,61.38
2022-11-07T15:20:05.485Z,61.33
2022-11-07T15:22:38.574Z,62.08
2022-11-07T15:25:32.657Z,62.42
2022-11-07T15:28:15.244Z,63.57
2022-11-07T15:30:44.896Z,63.35
2022-11-07T15:33:15.611Z,63.86
2022-11-07T15:36:01.102Z,64.26
2022-11-07T15:38:29.870Z,64.30
2022-11-07T15:40:56.772Z,64.24
2022-11-07T16:06:46.333Z,65.85
2022-11-07T16:09:24.618Z,66.67
2022-11-07T16:11:51.689Z,66.84
2022-11-07T16:17:15.441Z,67.79
2022-11-07T16:19:43.017Z,68.62
2022-11-07T16:22:15.358Z,68.70
2022-11-07T16:24:52.032Z,68.57
2022-11-07T16:27:28.487Z,69.30
2022-11-07T16:29:58.229Z,68.99
2022-11-07T16:32:25.171Z,69.08
2022-11-07T16:34:51.889Z,69.03
2022-11-07T16:37:20.057Z,69.92
2022-11-07T16:39:59.384Z,73.13
2022-11-07T16:42:26.810Z,74.12
2022-11-07T16:45:13.856Z,74.10
2022-11-07T16:51:22.914Z,74.22
2022-11-07T16:53:55.301Z,74.99
2022-11-07T16:56:26.687Z,73.92
2022-11-07T16:58:54.053Z,73.61
2022-11-07T17:01:28.476Z,73.68
2022-11-07T17:03:59.070Z,74.12
2022-11-07T17:06:34.279Z,74.63
2022-11-07T17:09:12.146Z,75.66
2022-11-07T17:11:40.466Z,75.97
2022-11-07T17:14:07.535Z,75.58
2022-11-07T17:16:35.480Z,75.12
2022-11-07T17:19:15.136Z,74.98
2022-11-07T17:21:54.565Z,74.82
2022-11-07T17:24:55.458Z,74.90
2022-11-07T17:27:32.105Z,74.05
2022-11-07T17:30:02.011Z,75.11
2022-11-07T17:32:30.271Z,73.84
2022-11-07T17:35:25.576Z,74.62
2022-11-07T17:37:44.545Z,75.58
2022-11-07T17:40:25.434Z,76.14
2022-11-07T17:42:52.655Z,75.45
2022-11-07T17:45:19.838Z,76.39
2022-11-07T17:52:21.209Z,76.95
2022-11-07T18:00:48.187Z,77.26
2022-11-07T18:12:05.772Z,73.74
2022-11-07T18:14:52.107Z,74.28
2022-11-07T18:17:20.661Z,73.56
2022-11-07T18:19:48.041Z,73.82
2022-11-07T18:22:21.165Z,73.13
2022-11-07T18:24:48.324Z,72.55
2022-11-07T18:28:40.258Z,72.41
2022-11-07T18:31:11.134Z,72.25
2022-11-07T18:33:43.456Z,71.74
2022-11-07T18:36:14.491Z,71.88
2022-11-07T18:38:56.349Z,72.70
2022-11-07T18:41:23.829Z,72.11
2022-11-07T18:43:51.222Z,73.16
2022-11-07T18:46:18.981Z,72.81
2022-11-07T18:48:47.507Z,72.22
2022-11-07T18:51:25.505Z,72.77
2022-11-07T18:53:56.002Z,72.99
2022-11-07T18:56:26.791Z,72.35
2022-11-07T18:58:55.569Z,72.18
2022-11-07T19:01:29.035Z,72.78
2022-11-07T19:04:04.445Z,72.32
2022-11-07T19:06:33.107Z,71.59
2022-11-07T19:09:00.524Z,71.75
2022-11-07T19:11:30.649Z,71.94
2022-11-07T19:14:01.740Z,72.26
2022-11-07T19:16:33.169Z,72.17
2022-11-07T19:19:12.387Z,72.81
2022-11-07T19:21:43.591Z,72.37
2022-11-07T19:24:10.870Z,72.64
2022-11-07T19:26:37.790Z,73.18
2022-11-07T19:29:05.492Z,73.02
2022-11-07T19:31:34.962Z,72.95
2022-11-07T19:34:03.175Z,73.17
2022-11-07T19:36:31.627Z,72.82
2022-11-07T19:38:58.615Z,73.48
2022-11-07T19:41:26.816Z,73.58
2022-11-07T19:43:53.914Z,73.55
2022-11-07T19:46:22.844Z,73.93
2022-11-07T19:48:51.791Z,74.06
2022-11-07T19:51:22.621Z,73.69
2022-11-07T19:53:58.875Z,74.45
2022-11-07T19:56:29.758Z,75.25
2022-11-07T19:59:07.549Z,75.29
2022-11-07T20:02:25.835Z,75.92
2022-11-07T20:04:53.572Z,75.95
2022-11-07T20:07:20.612Z,76.02
2022-11-07T20:13:57.402Z,76.09
2022-11-07T20:16:35.277Z,76.23
2022-11-07T20:19:04.230Z,75.93
2022-11-07T20:21:31.422Z,75.91
2022-11-07T20:23:59.694Z,76.48
2022-11-07T20:26:29.806Z,76.71
2022-11-07T21:00:24.213Z,77.68
2022-11-07T21:02:51.602Z,78.52
2022-11-07T21:05:18.796Z,78.36
2022-11-07T21:08:01.822Z,78.07
2022-11-07T21:10:28.978Z,77.82
2022-11-07T21:12:56.258Z,77.31
2022-11-07T21:15:28.306Z,76.61
